sensor_id;sensor_type;location;lat;lon;timestamp;temperature;humidity
48515;DHT22;34309;47.260;2.796;2023-02-25T00:00:13;22.00;23.20
48515;DHT22;34309;47.260;2.796;2023-02-25T00:02:50;21.90;23.30
48515;DHT22;34309;47.260;2.796;2023-02-25T00:05:24;21.90;23.20
48515;DHT22;34309;47.260;2.796;2023-02-25T00:07:58;21.90;23.20
48515;DHT22;34309;47.260;2.796;2023-02-25T00:10:33;21.90;23.30
48515;DHT22;34309;47.260;2.796;2023-02-25T00:13:07;21.80;23.20
48515;DHT22;34309;47.260;2.796;2023-02-25T00:15:42;21.90;23.50
48515;DHT22;34309;47.260;2.796;2023-02-25T00:18:16;21.80;23.30
48515;DHT22;34309;47.260;2.796;2023-02-25T00:20:50;21.80;23.30
48515;DHT22;34309;47.260;2.796;2023-02-25T00:23:24;21.70;23.20
48515;DHT22;34309;47.260;2.796;2023-02-25T00:26:00;21.80;23.40
48515;DHT22;34309;47.260;2.796;2023-02-25T00:28:34;21.70;23.30
48515;DHT22;34309;47.260;2.796;2023-02-25T00:31:09;21.70;23.50
48515;DHT22;34309;47.260;2.796;2023-02-25T00:33:43;21.60;23.50
48515;DHT22;34309;47.260;2.796;2023-02-25T00:36:19;21.60;24.10
48515;DHT22;34309;47.260;2.796;2023-02-25T00:38:55;21.60;23.50
48515;DHT22;34309;47.260;2.796;2023-02-25T00:41:30;21.60;23.40
48515;DHT22;34309;47.260;2.796;2023-02-25T00:44:04;21.60;23.50
48515;DHT22;34309;47.260;2.796;2023-02-25T00:46:38;21.50;23.60
48515;DHT22;34309;47.260;2.796;2023-02-25T00:49:12;21.60;24.00
48515;DHT22;34309;47.260;2.796;2023-02-25T00:51:46;21.60;24.10
48515;DHT22;34309;47.260;2.796;2023-02-25T00:54:19;21.60;24.00
48515;DHT22;34309;47.260;2.796;2023-02-25T00:56:54;21.70;24.00
48515;DHT22;34309;47.260;2.796;2023-02-25T00:59:28;21.70;23.90
48515;DHT22;34309;47.260;2.796;2023-02-25T01:02:02;21.80;23.90
48515;DHT22;34309;47.260;2.796;2023-02-25T01:04:36;21.80;23.90
48515;DHT22;34309;47.260;2.796;2023-02-25T01:07:11;21.90;24.00
48515;DHT22;34309;47.260;2.796;2023-02-25T01:09:45;21.90;23.90
48515;DHT22;34309;47.260;2.796;2023-02-25T01:12:20;22.00;23.70
48515;DHT22;34309;47.260;2.796;2023-02-25T01:14:54;22.00;23.80
48515;DHT22;34309;47.260;2.796;2023-02-25T01:17:28;22.10;23.70
48515;DHT22;34309;47.260;2.796;2023-02-25T01:20:02;22.20;23.80
48515;DHT22;34309;47.260;2.796;2023-02-25T01:22:43;22.20;23.70
48515;DHT22;34309;47.260;2.796;2023-02-25T01:25:17;22.20;23.70
48515;DHT22;34309;47.260;2.796;2023-02-25T01:27:54;22.20;23.60
48515;DHT22;34309;47.260;2.796;2023-02-25T01:30:28;22.20;23.50
48515;DHT22;34309;47.260;2.796;2023-02-25T01:33:02;22.30;23.70
48515;DHT22;34309;47.260;2.796;2023-02-25T01:35:30;22.30;23.70
48515;DHT22;34309;47.260;2.796;2023-02-25T01:38:04;22.30;23.70
48515;DHT22;34309;47.260;2.796;2023-02-25T01:40:38;22.30;23.40
48515;DHT22;34309;47.260;2.796;2023-02-25T01:43:14;22.20;23.20
48515;DHT22;34309;47.260;2.796;2023-02-25T01:45:50;22.30;23.60
48515;DHT22;34309;47.260;2.796;2023-02-25T01:48:27;22.30;23.60
48515;DHT22;34309;47.260;2.796;2023-02-25T01:51:07;22.30;23.40
48515;DHT22;34309;47.260;2.796;2023-02-25T01:53:45;22.40;23.70
48515;DHT22;34309;47.260;2.796;2023-02-25T01:56:19;22.40;23.50
48515;DHT22;34309;47.260;2.796;2023-02-25T01:58:57;22.30;23.30
48515;DHT22;34309;47.260;2.796;2023-02-25T02:01:32;22.30;23.50
48515;DHT22;34309;47.260;2.796;2023-02-25T02:04:03;22.30;23.20
48515;DHT22;34309;47.260;2.796;2023-02-25T02:06:40;22.30;23.40
48515;DHT22;34309;47.260;2.796;2023-02-25T02:09:16;22.20;23.40
48515;DHT22;34309;47.260;2.796;2023-02-25T02:11:50;22.20;23.40
48515;DHT22;34309;47.260;2.796;2023-02-25T02:14:27;22.20;23.20
48515;DHT22;34309;47.260;2.796;2023-02-25T02:17:15;22.20;23.20
48515;DHT22;34309;47.260;2.796;2023-02-25T02:20:05;22.10;23.20
48515;DHT22;34309;47.260;2.796;2023-02-25T02:22:53;22.00;23.30
48515;DHT22;34309;47.260;2.796;2023-02-25T02:25:54;22.00;23.10
48515;DHT22;34309;47.260;2.796;2023-02-25T02:29:03;21.90;23.10
48515;DHT22;34309;47.260;2.796;2023-02-25T02:31:49;21.90;23.20
48515;DHT22;34309;47.260;2.796;2023-02-25T02:34:30;21.90;23.30
48515;DHT22;34309;47.260;2.796;2023-02-25T02:37:22;21.80;23.10
48515;DHT22;34309;47.260;2.796;2023-02-25T02:40:09;21.80;23.10
48515;DHT22;34309;47.260;2.796;2023-02-25T02:42:57;21.70;23.00
48515;DHT22;34309;47.260;2.796;2023-02-25T02:45:40;21.70;23.00
48515;DHT22;34309;47.260;2.796;2023-02-25T02:48:21;21.70;23.10
48515;DHT22;34309;47.260;2.796;2023-02-25T02:50:57;21.60;23.20
48515;DHT22;34309;47.260;2.796;2023-02-25T02:53:35;21.60;23.10
48515;DHT22;34309;47.260;2.796;2023-02-25T02:56:13;21.60;23.20
48515;DHT22;34309;47.260;2.796;2023-02-25T02:58:51;21.60;23.20
48515;DHT22;34309;47.260;2.796;2023-02-25T03:01:28;21.50;23.10
48515;DHT22;34309;47.260;2.796;2023-02-25T03:04:07;21.50;23.20
48515;DHT22;34309;47.260;2.796;2023-02-25T03:06:44;21.50;23.40
48515;DHT22;34309;47.260;2.796;2023-02-25T03:09:21;21.50;23.50
48515;DHT22;34309;47.260;2.796;2023-02-25T03:11:56;21.50;23.40
48515;DHT22;34309;47.260;2.796;2023-02-25T03:14:30;21.60;23.40
48515;DHT22;34309;47.260;2.796;2023-02-25T03:17:06;21.60;23.40
48515;DHT22;34309;47.260;2.796;2023-02-25T03:19:46;21.60;23.90
48515;DHT22;34309;47.260;2.796;2023-02-25T03:22:23;21.70;23.30
48515;DHT22;34309;47.260;2.796;2023-02-25T03:25:04;21.70;23.20
48515;DHT22;34309;47.260;2.796;2023-02-25T03:27:42;21.80;23.20
48515;DHT22;34309;47.260;2.796;2023-02-25T03:30:22;21.80;23.10
48515;DHT22;34309;47.260;2.796;2023-02-25T03:33:00;21.90;23.00
48515;DHT22;34309;47.260;2.796;2023-02-25T03:35:37;21.90;23.40
48515;DHT22;34309;47.260;2.796;2023-02-25T03:38:16;22.00;23.00
48515;DHT22;34309;47.260;2.796;2023-02-25T03:40:53;21.90;22.90
48515;DHT22;34309;47.260;2.796;2023-02-25T03:43:31;22.00;22.90
48515;DHT22;34309;47.260;2.796;2023-02-25T03:46:06;22.00;22.80
48515;DHT22;34309;47.260;2.796;2023-02-25T03:48:41;22.00;22.70
48515;DHT22;34309;47.260;2.796;2023-02-25T03:51:20;22.00;22.70
48515;DHT22;34309;47.260;2.796;2023-02-25T03:53:55;22.00;22.70
48515;DHT22;34309;47.260;2.796;2023-02-25T03:56:29;22.00;22.60
48515;DHT22;34309;47.260;2.796;2023-02-25T03:59:03;22.00;22.70
48515;DHT22;34309;47.260;2.796;2023-02-25T04:01:37;22.00;22.70
48515;DHT22;34309;47.260;2.796;2023-02-25T04:04:12;22.00;22.60
48515;DHT22;34309;47.260;2.796;2023-02-25T04:06:47;22.00;22.60
48515;DHT22;34309;47.260;2.796;2023-02-25T04:09:20;21.90;22.40
48515;DHT22;34309;47.260;2.796;2023-02-25T04:11:54;21.90;22.60
48515;DHT22;34309;47.260;2.796;2023-02-25T04:14:29;21.90;22.60
48515;DHT22;34309;47.260;2.796;2023-02-25T04:17:02;21.90;22.70
48515;DHT22;34309;47.260;2.796;2023-02-25T04:19:37;21.90;22.70
48515;DHT22;34309;47.260;2.796;2023-02-25T04:22:12;21.90;22.70
48515;DHT22;34309;47.260;2.796;2023-02-25T04:24:45;21.80;22.60
48515;DHT22;34309;47.260;2.796;2023-02-25T04:27:19;21.80;22.60
48515;DHT22;34309;47.260;2.796;2023-02-25T04:29:53;21.80;22.80
48515;DHT22;34309;47.260;2.796;2023-02-25T04:32:26;21.70;22.60
48515;DHT22;34309;47.260;2.796;2023-02-25T04:35:00;21.70;22.80
48515;DHT22;34309;47.260;2.796;2023-02-25T04:37:31;21.70;22.70
48515;DHT22;34309;47.260;2.796;2023-02-25T04:40:06;21.70;22.70
48515;DHT22;34309;47.260;2.796;2023-02-25T04:42:43;21.60;22.60
48515;DHT22;34309;47.260;2.796;2023-02-25T04:45:17;21.60;22.60
48515;DHT22;34309;47.260;2.796;2023-02-25T04:47:52;21.60;22.60
48515;DHT22;34309;47.260;2.796;2023-02-25T04:50:25;21.50;22.70
48515;DHT22;34309;47.260;2.796;2023-02-25T04:53:01;21.50;22.50
48515;DHT22;34309;47.260;2.796;2023-02-25T04:55:35;21.40;22.50
48515;DHT22;34309;47.260;2.796;2023-02-25T04:58:09;21.40;22.60
48515;DHT22;34309;47.260;2.796;2023-02-25T05:00:43;21.40;22.50
48515;DHT22;34309;47.260;2.796;2023-02-25T05:03:20;21.30;22.50
48515;DHT22;34309;47.260;2.796;2023-02-25T05:05:54;21.30;22.50
48515;DHT22;34309;47.260;2.796;2023-02-25T05:08:29;21.30;22.70
48515;DHT22;34309;47.260;2.796;2023-02-25T05:10:59;21.30;22.60
48515;DHT22;34309;47.260;2.796;2023-02-25T05:13:33;21.30;22.70
48515;DHT22;34309;47.260;2.796;2023-02-25T05:16:08;21.20;22.60
48515;DHT22;34309;47.260;2.796;2023-02-25T05:18:44;21.20;22.70
48515;DHT22;34309;47.260;2.796;2023-02-25T05:21:21;21.20;22.80
48515;DHT22;34309;47.260;2.796;2023-02-25T05:23:56;21.20;23.00
48515;DHT22;34309;47.260;2.796;2023-02-25T05:26:30;21.20;23.00
48515;DHT22;34309;47.260;2.796;2023-02-25T05:29:04;21.20;23.00
48515;DHT22;34309;47.260;2.796;2023-02-25T05:31:38;21.20;23.00
48515;DHT22;34309;47.260;2.796;2023-02-25T05:34:12;21.30;23.10
48515;DHT22;34309;47.260;2.796;2023-02-25T05:36:46;21.30;23.00
48515;DHT22;34309;47.260;2.796;2023-02-25T05:39:17;21.40;22.90
48515;DHT22;34309;47.260;2.796;2023-02-25T05:41:50;21.40;22.90
48515;DHT22;34309;47.260;2.796;2023-02-25T05:44:24;21.50;22.80
48515;DHT22;34309;47.260;2.796;2023-02-25T05:46:58;21.50;22.90
48515;DHT22;34309;47.260;2.796;2023-02-25T05:49:31;21.60;22.70
48515;DHT22;34309;47.260;2.796;2023-02-25T05:52:05;21.60;22.60
48515;DHT22;34309;47.260;2.796;2023-02-25T05:54:40;21.60;22.50
48515;DHT22;34309;47.260;2.796;2023-02-25T05:57:14;21.70;22.40
48515;DHT22;34309;47.260;2.796;2023-02-25T05:59:48;21.70;22.40
48515;DHT22;34309;47.260;2.796;2023-02-25T06:02:21;21.70;22.50
48515;DHT22;34309;47.260;2.796;2023-02-25T06:04:55;21.70;22.40
48515;DHT22;34309;47.260;2.796;2023-02-25T06:07:30;21.70;22.30
48515;DHT22;34309;47.260;2.796;2023-02-25T06:10:06;21.70;22.20
48515;DHT22;34309;47.260;2.796;2023-02-25T06:12:40;21.70;22.10
48515;DHT22;34309;47.260;2.796;2023-02-25T06:15:14;21.70;22.20
48515;DHT22;34309;47.260;2.796;2023-02-25T06:17:48;21.70;22.00
48515;DHT22;34309;47.260;2.796;2023-02-25T06:20:22;21.70;22.10
48515;DHT22;34309;47.260;2.796;2023-02-25T06:22:57;21.70;22.10
48515;DHT22;34309;47.260;2.796;2023-02-25T06:25:32;21.60;22.20
48515;DHT22;34309;47.260;2.796;2023-02-25T06:28:06;21.60;22.20
48515;DHT22;34309;47.260;2.796;2023-02-25T06:30:40;21.60;22.20
48515;DHT22;34309;47.260;2.796;2023-02-25T06:33:14;21.60;22.10
48515;DHT22;34309;47.260;2.796;2023-02-25T06:35:50;21.50;22.20
48515;DHT22;34309;47.260;2.796;2023-02-25T06:38:24;21.50;22.00
48515;DHT22;34309;47.260;2.796;2023-02-25T06:41:03;21.50;22.10
48515;DHT22;34309;47.260;2.796;2023-02-25T06:43:37;21.40;22.10
48515;DHT22;34309;47.260;2.796;2023-02-25T06:46:13;21.40;22.20
48515;DHT22;34309;47.260;2.796;2023-02-25T06:48:47;21.40;22.10
48515;DHT22;34309;47.260;2.796;2023-02-25T06:51:21;21.30;22.10
48515;DHT22;34309;47.260;2.796;2023-02-25T06:53:54;21.30;22.10
48515;DHT22;34309;47.260;2.796;2023-02-25T06:56:29;21.30;22.10
48515;DHT22;34309;47.260;2.796;2023-02-25T06:59:03;21.30;22.10
48515;DHT22;34309;47.260;2.796;2023-02-25T07:01:37;21.30;22.10
48515;DHT22;34309;47.260;2.796;2023-02-25T07:04:14;21.20;22.20
48515;DHT22;34309;47.260;2.796;2023-02-25T07:06:48;21.10;22.10
48515;DHT22;34309;47.260;2.796;2023-02-25T07:09:21;21.10;22.10
48515;DHT22;34309;47.260;2.796;2023-02-25T07:11:57;21.10;22.20
48515;DHT22;34309;47.260;2.796;2023-02-25T07:14:30;21.10;22.20
48515;DHT22;34309;47.260;2.796;2023-02-25T07:17:05;21.00;22.20
48515;DHT22;34309;47.260;2.796;2023-02-25T07:19:38;21.00;22.30
48515;DHT22;34309;47.260;2.796;2023-02-25T07:22:13;21.00;22.20
48515;DHT22;34309;47.260;2.796;2023-02-25T07:24:47;21.00;22.30
48515;DHT22;34309;47.260;2.796;2023-02-25T07:27:23;20.90;22.20
48515;DHT22;34309;47.260;2.796;2023-02-25T07:29:57;20.90;22.50
48515;DHT22;34309;47.260;2.796;2023-02-25T07:32:32;20.90;22.50
48515;DHT22;34309;47.260;2.796;2023-02-25T07:35:07;21.00;22.60
48515;DHT22;34309;47.260;2.796;2023-02-25T07:37:41;21.00;22.60
48515;DHT22;34309;47.260;2.796;2023-02-25T07:40:15;21.00;22.50
48515;DHT22;34309;47.260;2.796;2023-02-25T07:42:50;21.10;22.50
48515;DHT22;34309;47.260;2.796;2023-02-25T07:45:24;21.20;22.40
48515;DHT22;34309;47.260;2.796;2023-02-25T07:47:57;21.20;22.30
48515;DHT22;34309;47.260;2.796;2023-02-25T07:50:26;21.30;22.30
48515;DHT22;34309;47.260;2.796;2023-02-25T07:53:00;21.30;22.10
48515;DHT22;34309;47.260;2.796;2023-02-25T07:55:33;21.30;22.10
48515;DHT22;34309;47.260;2.796;2023-02-25T07:58:11;21.40;22.00
48515;DHT22;34309;47.260;2.796;2023-02-25T08:00:44;21.40;21.90
48515;DHT22;34309;47.260;2.796;2023-02-25T08:03:18;21.50;22.00
48515;DHT22;34309;47.260;2.796;2023-02-25T08:05:52;21.50;22.00
48515;DHT22;34309;47.260;2.796;2023-02-25T08:08:26;21.50;22.00
48515;DHT22;34309;47.260;2.796;2023-02-25T08:11:04;21.60;21.90
48515;DHT22;34309;47.260;2.796;2023-02-25T08:13:40;21.70;21.90
48515;DHT22;34309;47.260;2.796;2023-02-25T08:16:16;21.70;21.70
48515;DHT22;34309;47.260;2.796;2023-02-25T08:18:50;21.80;21.50
48515;DHT22;34309;47.260;2.796;2023-02-25T08:21:25;21.90;21.60
48515;DHT22;34309;47.260;2.796;2023-02-25T08:23:58;21.90;21.60
48515;DHT22;34309;47.260;2.796;2023-02-25T08:26:32;21.90;21.40
48515;DHT22;34309;47.260;2.796;2023-02-25T08:29:07;21.90;21.30
48515;DHT22;34309;47.260;2.796;2023-02-25T08:31:41;21.90;21.50
48515;DHT22;34309;47.260;2.796;2023-02-25T08:34:14;21.90;21.90
48515;DHT22;34309;47.260;2.796;2023-02-25T08:36:48;22.00;21.30
48515;DHT22;34309;47.260;2.796;2023-02-25T08:39:21;22.00;21.10
48515;DHT22;34309;47.260;2.796;2023-02-25T08:41:55;21.90;21.00
48515;DHT22;34309;47.260;2.796;2023-02-25T08:44:30;22.00;21.10
48515;DHT22;34309;47.260;2.796;2023-02-25T08:47:04;22.00;20.90
48515;DHT22;34309;47.260;2.796;2023-02-25T08:49:38;21.90;20.90
48515;DHT22;34309;47.260;2.796;2023-02-25T08:52:12;21.90;20.80
48515;DHT22;34309;47.260;2.796;2023-02-25T08:54:46;21.80;20.80
48515;DHT22;34309;47.260;2.796;2023-02-25T08:57:20;21.80;20.80
48515;DHT22;34309;47.260;2.796;2023-02-25T08:59:55;21.80;20.80
48515;DHT22;34309;47.260;2.796;2023-02-25T09:02:28;21.80;20.90
48515;DHT22;34309;47.260;2.796;2023-02-25T09:05:10;21.80;20.90
48515;DHT22;34309;47.260;2.796;2023-02-25T09:07:44;21.70;20.90
48515;DHT22;34309;47.260;2.796;2023-02-25T09:10:18;21.70;20.90
48515;DHT22;34309;47.260;2.796;2023-02-25T09:12:52;21.60;20.70
48515;DHT22;34309;47.260;2.796;2023-02-25T09:15:27;21.60;20.90
48515;DHT22;34309;47.260;2.796;2023-02-25T09:18:04;21.60;20.90
48515;DHT22;34309;47.260;2.796;2023-02-25T09:20:37;21.50;20.90
48515;DHT22;34309;47.260;2.796;2023-02-25T09:23:11;21.50;21.10
48515;DHT22;34309;47.260;2.796;2023-02-25T09:25:46;21.50;21.10
48515;DHT22;34309;47.260;2.796;2023-02-25T09:28:20;21.40;21.20
48515;DHT22;34309;47.260;2.796;2023-02-25T09:30:57;21.40;21.00
48515;DHT22;34309;47.260;2.796;2023-02-25T09:33:31;21.30;21.20
48515;DHT22;34309;47.260;2.796;2023-02-25T09:36:06;21.30;21.00
48515;DHT22;34309;47.260;2.796;2023-02-25T09:38:41;21.30;20.90
48515;DHT22;34309;47.260;2.796;2023-02-25T09:41:24;21.20;20.90
48515;DHT22;34309;47.260;2.796;2023-02-25T09:44:03;21.20;21.00
48515;DHT22;34309;47.260;2.796;2023-02-25T09:46:44;21.20;21.20
48515;DHT22;34309;47.260;2.796;2023-02-25T09:49:25;21.10;21.10
48515;DHT22;34309;47.260;2.796;2023-02-25T09:52:06;21.10;21.00
48515;DHT22;34309;47.260;2.796;2023-02-25T09:54:44;21.00;21.00
48515;DHT22;34309;47.260;2.796;2023-02-25T09:57:20;21.00;21.10
48515;DHT22;34309;47.260;2.796;2023-02-25T09:59:54;21.00;21.20
48515;DHT22;34309;47.260;2.796;2023-02-25T10:02:35;20.90;21.20
48515;DHT22;34309;47.260;2.796;2023-02-25T10:05:21;20.90;21.10
48515;DHT22;34309;47.260;2.796;2023-02-25T10:08:04;20.80;21.30
48515;DHT22;34309;47.260;2.796;2023-02-25T10:10:46;20.80;21.40
48515;DHT22;34309;47.260;2.796;2023-02-25T10:13:28;20.80;21.30
48515;DHT22;34309;47.260;2.796;2023-02-25T10:16:17;20.80;21.30
48515;DHT22;34309;47.260;2.796;2023-02-25T10:19:05;20.70;21.40
48515;DHT22;34309;47.260;2.796;2023-02-25T10:21:51;20.70;21.50
48515;DHT22;34309;47.260;2.796;2023-02-25T10:24:31;20.60;21.50
48515;DHT22;34309;47.260;2.796;2023-02-25T10:27:12;20.60;21.60
48515;DHT22;34309;47.260;2.796;2023-02-25T10:29:51;20.60;21.40
48515;DHT22;34309;47.260;2.796;2023-02-25T10:32:30;20.60;21.50
48515;DHT22;34309;47.260;2.796;2023-02-25T10:35:15;20.50;21.60
48515;DHT22;34309;47.260;2.796;2023-02-25T10:37:49;20.60;21.60
48515;DHT22;34309;47.260;2.796;2023-02-25T10:40:24;20.60;21.90
48515;DHT22;34309;47.260;2.796;2023-02-25T10:43:05;20.50;21.70
48515;DHT22;34309;47.260;2.796;2023-02-25T10:45:45;20.50;21.80
48515;DHT22;34309;47.260;2.796;2023-02-25T10:48:22;20.40;21.80
48515;DHT22;34309;47.260;2.796;2023-02-25T10:51:05;20.50;21.90
48515;DHT22;34309;47.260;2.796;2023-02-25T10:54:00;20.40;21.90
48515;DHT22;34309;47.260;2.796;2023-02-25T10:56:40;20.40;22.00
48515;DHT22;34309;47.260;2.796;2023-02-25T10:59:28;20.40;22.10
48515;DHT22;34309;47.260;2.796;2023-02-25T11:02:04;20.40;22.30
48515;DHT22;34309;47.260;2.796;2023-02-25T11:04:52;20.40;22.10
48515;DHT22;34309;47.260;2.796;2023-02-25T11:07:34;20.30;22.10
48515;DHT22;34309;47.260;2.796;2023-02-25T11:10:13;20.30;22.10
48515;DHT22;34309;47.260;2.796;2023-02-25T11:12:51;20.30;22.30
48515;DHT22;34309;47.260;2.796;2023-02-25T11:15:33;20.30;22.30
48515;DHT22;34309;47.260;2.796;2023-02-25T11:18:16;20.30;22.40
48515;DHT22;34309;47.260;2.796;2023-02-25T11:20:54;20.20;22.10
48515;DHT22;34309;47.260;2.796;2023-02-25T11:23:32;20.20;22.10
48515;DHT22;34309;47.260;2.796;2023-02-25T11:26:07;20.20;22.20
48515;DHT22;34309;47.260;2.796;2023-02-25T11:28:44;20.20;22.20
48515;DHT22;34309;47.260;2.796;2023-02-25T11:31:22;20.20;22.30
48515;DHT22;34309;47.260;2.796;2023-02-25T11:33:58;20.10;22.50
48515;DHT22;34309;47.260;2.796;2023-02-25T11:36:35;20.20;22.40
48515;DHT22;34309;47.260;2.796;2023-02-25T11:39:22;20.10;22.20
48515;DHT22;34309;47.260;2.796;2023-02-25T11:41:57;20.10;22.40
48515;DHT22;34309;47.260;2.796;2023-02-25T11:44:41;20.10;22.30
48515;DHT22;34309;47.260;2.796;2023-02-25T11:47:23;20.10;22.40
48515;DHT22;34309;47.260;2.796;2023-02-25T11:50:09;20.00;22.30
48515;DHT22;34309;47.260;2.796;2023-02-25T11:52:53;20.00;22.30
48515;DHT22;34309;47.260;2.796;2023-02-25T11:55:40;20.00;22.40
48515;DHT22;34309;47.260;2.796;2023-02-25T11:58:27;19.90;22.20
48515;DHT22;34309;47.260;2.796;2023-02-25T12:01:03;20.00;22.40
48515;DHT22;34309;47.260;2.796;2023-02-25T12:04:04;20.00;22.40
48515;DHT22;34309;47.260;2.796;2023-02-25T12:07:01;20.00;22.50
48515;DHT22;34309;47.260;2.796;2023-02-25T12:13:00;19.90;22.60
48515;DHT22;34309;47.260;2.796;2023-02-25T12:16:31;19.90;22.60
48515;DHT22;34309;47.260;2.796;2023-02-25T12:19:24;19.90;22.70
48515;DHT22;34309;47.260;2.796;2023-02-25T12:22:26;19.90;22.70
48515;DHT22;34309;47.260;2.796;2023-02-25T12:25:13;19.90;22.70
48515;DHT22;34309;47.260;2.796;2023-02-25T12:34:42;19.80;22.70
48515;DHT22;34309;47.260;2.796;2023-02-25T12:37:33;19.80;22.70
48515;DHT22;34309;47.260;2.796;2023-02-25T12:40:47;19.80;22.80
48515;DHT22;34309;47.260;2.796;2023-02-25T12:43:37;19.70;22.70
48515;DHT22;34309;47.260;2.796;2023-02-25T12:46:37;19.80;22.90
48515;DHT22;34309;47.260;2.796;2023-02-25T12:49:29;19.70;22.90
48515;DHT22;34309;47.260;2.796;2023-02-25T12:52:17;19.70;22.80
48515;DHT22;34309;47.260;2.796;2023-02-25T13:01:09;19.70;22.70
48515;DHT22;34309;47.260;2.796;2023-02-25T13:04:26;19.70;22.70
48515;DHT22;34309;47.260;2.796;2023-02-25T13:07:21;19.70;22.70
48515;DHT22;34309;47.260;2.796;2023-02-25T13:10:28;19.60;22.70
48515;DHT22;34309;47.260;2.796;2023-02-25T13:13:22;19.60;22.80
48515;DHT22;34309;47.260;2.796;2023-02-25T13:16:02;19.60;22.80
48515;DHT22;34309;47.260;2.796;2023-02-25T13:18:51;19.60;23.00
48515;DHT22;34309;47.260;2.796;2023-02-25T13:21:49;19.60;23.00
48515;DHT22;34309;47.260;2.796;2023-02-25T13:24:37;19.60;22.80
48515;DHT22;34309;47.260;2.796;2023-02-25T13:30:28;19.60;22.90
48515;DHT22;34309;47.260;2.796;2023-02-25T13:33:22;19.50;22.80
48515;DHT22;34309;47.260;2.796;2023-02-25T13:36:07;19.50;22.90
48515;DHT22;34309;47.260;2.796;2023-02-25T13:39:10;19.50;22.80
48515;DHT22;34309;47.260;2.796;2023-02-25T13:41:58;19.50;22.90
48515;DHT22;34309;47.260;2.796;2023-02-25T13:44:56;19.50;22.80
48515;DHT22;34309;47.260;2.796;2023-02-25T13:47:46;19.50;23.00
48515;DHT22;34309;47.260;2.796;2023-02-25T13:53:47;19.50;22.90
48515;DHT22;34309;47.260;2.796;2023-02-25T13:56:47;19.50;23.00
48515;DHT22;34309;47.260;2.796;2023-02-25T14:03:04;19.40;22.90
48515;DHT22;34309;47.260;2.796;2023-02-25T14:06:01;19.50;23.10
48515;DHT22;34309;47.260;2.796;2023-02-25T14:08:50;19.50;23.00
48515;DHT22;34309;47.260;2.796;2023-02-25T14:11:38;19.40;22.90
48515;DHT22;34309;47.260;2.796;2023-02-25T14:17:39;19.40;23.10
48515;DHT22;34309;47.260;2.796;2023-02-25T14:20:30;19.40;23.00
48515;DHT22;34309;47.260;2.796;2023-02-25T14:23:11;19.40;23.00
48515;DHT22;34309;47.260;2.796;2023-02-25T14:26:02;19.40;22.90
48515;DHT22;34309;47.260;2.796;2023-02-25T14:28:42;19.40;22.90
48515;DHT22;34309;47.260;2.796;2023-02-25T14:31:24;19.40;23.00
48515;DHT22;34309;47.260;2.796;2023-02-25T14:34:09;19.40;23.10
48515;DHT22;34309;47.260;2.796;2023-02-25T14:39:54;19.40;23.00
48515;DHT22;34309;47.260;2.796;2023-02-25T14:42:41;19.40;23.10
48515;DHT22;34309;47.260;2.796;2023-02-25T14:45:20;19.30;22.90
48515;DHT22;34309;47.260;2.796;2023-02-25T14:48:00;19.30;23.10
48515;DHT22;34309;47.260;2.796;2023-02-25T14:50:41;19.40;23.20
48515;DHT22;34309;47.260;2.796;2023-02-25T14:56:28;19.30;23.10
48515;DHT22;34309;47.260;2.796;2023-02-25T14:59:45;19.30;22.90
48515;DHT22;34309;47.260;2.796;2023-02-25T15:02:45;19.30;22.80
48515;DHT22;34309;47.260;2.796;2023-02-25T15:08:34;19.30;23.00
48515;DHT22;34309;47.260;2.796;2023-02-25T15:11:36;19.30;22.90
48515;DHT22;34309;47.260;2.796;2023-02-25T15:20:39;19.30;22.70
48515;DHT22;34309;47.260;2.796;2023-02-25T15:23:14;19.30;22.90
48515;DHT22;34309;47.260;2.796;2023-02-25T15:25:50;19.30;22.80
48515;DHT22;34309;47.260;2.796;2023-02-25T15:28:39;19.30;22.80
48515;DHT22;34309;47.260;2.796;2023-02-25T15:31:34;19.30;22.70
48515;DHT22;34309;47.260;2.796;2023-02-25T15:34:31;19.30;22.70
48515;DHT22;34309;47.260;2.796;2023-02-25T15:37:26;19.30;22.50
48515;DHT22;34309;47.260;2.796;2023-02-25T15:42:57;19.30;22.60
48515;DHT22;34309;47.260;2.796;2023-02-25T15:45:42;19.30;22.50
48515;DHT22;34309;47.260;2.796;2023-02-25T15:48:31;19.30;22.60
48515;DHT22;34309;47.260;2.796;2023-02-25T15:51:09;19.30;22.70
48515;DHT22;34309;47.260;2.796;2023-02-25T15:53:47;19.30;22.60
48515;DHT22;34309;47.260;2.796;2023-02-25T15:56:25;19.30;22.50
48515;DHT22;34309;47.260;2.796;2023-02-25T15:59:00;19.20;22.50
48515;DHT22;34309;47.260;2.796;2023-02-25T16:01:39;19.20;22.50
48515;DHT22;34309;47.260;2.796;2023-02-25T16:04:43;19.20;22.50
48515;DHT22;34309;47.260;2.796;2023-02-25T16:07:19;19.20;22.40
48515;DHT22;34309;47.260;2.796;2023-02-25T16:09:58;19.20;22.30
48515;DHT22;34309;47.260;2.796;2023-02-25T16:12:33;19.20;22.30
48515;DHT22;34309;47.260;2.796;2023-02-25T16:15:13;19.20;22.50
48515;DHT22;34309;47.260;2.796;2023-02-25T16:17:50;19.20;22.70
48515;DHT22;34309;47.260;2.796;2023-02-25T16:20:29;19.30;22.70
48515;DHT22;34309;47.260;2.796;2023-02-25T16:23:09;19.30;22.80
48515;DHT22;34309;47.260;2.796;2023-02-25T16:25:51;19.40;22.60
48515;DHT22;34309;47.260;2.796;2023-02-25T16:28:34;19.50;23.20
48515;DHT22;34309;47.260;2.796;2023-02-25T16:31:16;19.70;24.00
48515;DHT22;34309;47.260;2.796;2023-02-25T16:33:53;19.70;23.70
48515;DHT22;34309;47.260;2.796;2023-02-25T16:36:34;19.80;23.40
48515;DHT22;34309;47.260;2.796;2023-02-25T16:39:13;19.90;23.20
48515;DHT22;34309;47.260;2.796;2023-02-25T16:41:49;19.90;23.10
48515;DHT22;34309;47.260;2.796;2023-02-25T16:44:27;20.00;23.00
48515;DHT22;34309;47.260;2.796;2023-02-25T16:47:03;20.10;22.70
48515;DHT22;34309;47.260;2.796;2023-02-25T16:49:38;20.10;22.70
48515;DHT22;34309;47.260;2.796;2023-02-25T16:52:16;20.10;22.60
48515;DHT22;34309;47.260;2.796;2023-02-25T16:54:55;20.20;22.50
48515;DHT22;34309;47.260;2.796;2023-02-25T16:57:27;20.20;22.20
48515;DHT22;34309;47.260;2.796;2023-02-25T17:00:15;20.20;22.00
48515;DHT22;34309;47.260;2.796;2023-02-25T17:02:51;20.20;21.80
48515;DHT22;34309;47.260;2.796;2023-02-25T17:05:27;20.20;21.90
48515;DHT22;34309;47.260;2.796;2023-02-25T17:08:03;20.20;21.80
48515;DHT22;34309;47.260;2.796;2023-02-25T17:10:44;20.20;21.80
48515;DHT22;34309;47.260;2.796;2023-02-25T17:13:24;20.30;21.80
48515;DHT22;34309;47.260;2.796;2023-02-25T17:15:58;20.30;21.60
48515;DHT22;34309;47.260;2.796;2023-02-25T17:18:40;20.30;21.60
48515;DHT22;34309;47.260;2.796;2023-02-25T17:21:20;20.20;21.30
48515;DHT22;34309;47.260;2.796;2023-02-25T17:23:55;20.20;21.10
48515;DHT22;34309;47.260;2.796;2023-02-25T17:26:30;20.20;21.30
48515;DHT22;34309;47.260;2.796;2023-02-25T17:29:10;20.20;21.20
48515;DHT22;34309;47.260;2.796;2023-02-25T17:31:46;20.20;21.20